Time;durP1;ratioP1;P1;durP2;ratioP2;P2;SDS_P1;SDS_P2;PMS_P1;PMS_P2;Temp;Humidity;BMP_temperature;BMP_pressure;BME280_temperature;BME280_humidity;BME280_pressure;Samples;Min_cycle;Max_cycle;Signal;HPM_P1;HPM_P2
2023/08/09 00:01:08;;;;;;;3.80;2.17;;;;;;;20.70;64.36;100196.41;5107852;28;20166;-59
2023/08/09 00:03:33;;;;;;;3.73;2.10;;;;;;;20.70;64.43;100207.88;5099823;28;20183;-59
2023/08/09 00:05:58;;;;;;;3.60;2.00;;;;;;;20.70;64.12;100207.06;5089796;28;20178;-58
2023/08/09 00:08:24;;;;;;;8.83;2.40;;;;;;;20.69;63.97;100202.53;5108661;28;20158;-59
2023/08/09 00:10:49;;;;;;;5.73;2.30;;;;;;;20.67;64.35;100200.06;5092915;28;20182;-59
2023/08/09 00:13:15;;;;;;;4.27;2.10;;;;;;;20.65;64.23;100185.31;5088991;28;20163;-59
2023/08/09 00:15:40;;;;;;;5.07;2.30;;;;;;;20.66;64.14;100192.69;5101443;28;20224;-59
2023/08/09 00:18:06;;;;;;;4.60;2.00;;;;;;;20.65;64.19;100196.78;5094503;28;20268;-59
2023/08/09 00:20:32;;;;;;;4.73;1.97;;;;;;;20.65;64.29;100175.88;5089292;28;20205;-59
2023/08/09 00:22:58;;;;;;;3.63;1.83;;;;;;;20.64;64.44;100172.19;5073205;28;20185;-59
2023/08/09 00:25:24;;;;;;;4.00;2.03;;;;;;;20.64;64.52;100172.19;5070348;28;20439;-59
2023/08/09 00:27:49;;;;;;;10.53;2.03;;;;;;;20.63;64.80;100170.53;5070669;28;20178;-59
2023/08/09 00:30:15;;;;;;;4.37;1.87;;;;;;;20.63;64.53;100173.38;5091129;28;20672;-59
2023/08/09 00:32:40;;;;;;;3.47;2.30;;;;;;;20.62;64.73;100168.88;5088644;28;20203;-59
2023/08/09 00:35:06;;;;;;;4.53;1.70;;;;;;;20.62;64.38;100159.47;5092862;28;20667;-58
2023/08/09 00:37:32;;;;;;;5.97;2.20;;;;;;;20.62;64.84;100162.34;5108813;28;20223;-59
2023/08/09 00:39:58;;;;;;;5.20;2.10;;;;;;;20.60;64.77;100159.03;5109030;28;20181;-59
2023/08/09 00:42:24;;;;;;;4.00;1.60;;;;;;;20.60;64.98;100171.34;5097104;28;20918;-59
2023/08/09 00:44:50;;;;;;;4.10;2.00;;;;;;;20.60;64.64;100159.88;5111709;27;20255;-59
2023/08/09 00:47:15;;;;;;;4.13;2.13;;;;;;;20.60;64.63;100171.34;5108116;28;20170;-59
2023/08/09 00:49:41;;;;;;;6.33;2.30;;;;;;;20.60;64.79;100173.38;5086746;28;20194;-58
2023/08/09 00:52:06;;;;;;;7.10;2.40;;;;;;;20.58;64.77;100168.03;5087321;28;20167;-59
2023/08/09 00:54:32;;;;;;;5.77;1.93;;;;;;;20.58;65.17;100168.03;5085229;28;20170;-59
2023/08/09 00:56:58;;;;;;;3.97;1.93;;;;;;;20.59;65.04;100160.25;5103778;28;20205;-59
2023/08/09 00:59:23;;;;;;;3.40;2.00;;;;;;;20.58;64.72;100153.69;5100712;28;20257;-59
2023/08/09 01:01:49;;;;;;;4.03;2.17;;;;;;;20.58;64.96;100173.75;5098709;28;20185;-59
2023/08/09 01:04:15;;;;;;;4.00;2.17;;;;;;;20.56;64.87;100178.25;5092538;28;20224;-59
2023/08/09 01:07:10;;;;;;;4.80;2.13;;;;;;;20.55;65.12;100174.56;5087220;28;20185;-59
2023/08/09 01:09:44;;;;;;;3.53;1.93;;;;;;;20.56;64.84;100186.84;5051281;28;20203;-59
2023/08/09 01:12:16;;;;;;;5.33;2.20;;;;;;;20.55;65.11;100185.22;5092106;28;21089;-59
2023/08/09 01:14:42;;;;;;;4.60;2.37;;;;;;;20.54;65.17;100183.56;5086508;28;20530;-59
2023/08/09 01:17:08;;;;;;;4.67;2.03;;;;;;;20.53;65.11;100177.00;5107659;28;20688;-59
2023/08/09 01:19:34;;;;;;;7.53;2.13;;;;;;;20.52;65.29;100166.75;5105892;28;20688;-59
2023/08/09 01:22:15;;;;;;;4.77;1.93;;;;;;;20.52;65.15;100174.56;5106959;28;20165;-59
2023/08/09 01:24:41;;;;;;;3.80;2.20;;;;;;;20.53;65.13;100164.72;5096919;28;20181;-59
2023/08/09 01:27:06;;;;;;;3.33;2.00;;;;;;;20.52;65.26;100166.75;5092472;27;20422;-59
2023/08/09 01:29:32;;;;;;;5.37;2.83;;;;;;;20.53;65.00;100159.78;5101096;28;20175;-59
2023/08/09 01:31:57;;;;;;;6.03;2.63;;;;;;;20.51;65.19;100159.38;5108267;28;20178;-59
2023/08/09 01:34:23;;;;;;;4.33;2.10;;;;;;;20.51;65.00;100147.91;5112397;28;20163;-59
2023/08/09 01:36:50;;;;;;;4.00;2.27;;;;;;;20.53;65.00;100153.25;5095519;28;20296;-59
2023/08/09 01:39:19;;;;;;;4.03;1.87;;;;;;;20.53;64.65;100159.78;5093883;28;20643;-59
2023/08/09 01:41:47;;;;;;;4.37;2.20;;;;;;;20.53;65.03;100156.13;5057896;28;20467;-59
2023/08/09 01:44:12;;;;;;;4.90;2.17;;;;;;;20.53;64.49;100167.59;5097721;28;20436;-59
2023/08/09 01:46:38;;;;;;;3.87;2.10;;;;;;;20.53;64.74;100174.13;5099326;27;20435;-60
2023/08/09 01:49:10;;;;;;;4.30;1.70;;;;;;;20.51;64.66;100178.63;5073743;28;20205;-59
2023/08/09 01:51:36;;;;;;;3.00;1.63;;;;;;;20.51;65.25;100187.22;5089532;28;20166;-59
2023/08/09 01:54:01;;;;;;;5.03;1.70;;;;;;;20.48;64.97;100186.00;5089360;28;20946;-59
2023/08/09 01:56:27;;;;;;;4.60;2.33;;;;;;;20.49;65.17;100175.34;5110380;27;20170;-58
2023/08/09 01:58:52;;;;;;;5.20;2.53;;;;;;;20.48;64.92;100168.78;5097401;28;20210;-59
2023/08/09 02:01:18;;;;;;;5.40;2.00;;;;;;;20.49;64.71;100169.59;5111693;27;20196;-59
2023/08/09 02:03:43;;;;;;;4.47;2.20;;;;;;;20.48;64.79;100157.31;5116036;27;20181;-59
2023/08/09 02:06:09;;;;;;;4.67;1.87;;;;;;;20.48;64.93;100168.78;5098073;28;20174;-58
2023/08/09 02:08:34;;;;;;;4.40;2.13;;;;;;;20.48;64.80;100168.78;5091325;28;20162;-59
2023/08/09 02:11:00;;;;;;;4.37;2.13;;;;;;;20.48;64.52;100174.53;5093690;28;20189;-59
2023/08/09 02:13:25;;;;;;;3.80;1.83;;;;;;;20.48;64.66;100167.97;5091295;28;20197;-59
2023/08/09 02:15:51;;;;;;;4.23;2.10;;;;;;;20.47;64.89;100160.59;5105465;28;20583;-59
2023/08/09 02:18:17;;;;;;;6.77;2.10;;;;;;;20.47;65.01;100172.06;5089100;28;20201;-58
2023/08/09 02:20:42;;;;;;;4.53;2.30;;;;;;;20.48;64.65;100168.78;5111867;28;20170;-59
2023/08/09 02:23:08;;;;;;;3.83;1.90;;;;;;;20.48;64.60;100168.78;5111444;28;20922;-59
2023/08/09 02:25:34;;;;;;;3.60;2.33;;;;;;;20.48;64.50;100168.78;5109779;28;20189;-59
2023/08/09 02:27:59;;;;;;;4.00;2.10;;;;;;;20.48;64.35;100163.06;5098849;28;20440;-59
2023/08/09 02:30:25;;;;;;;3.27;1.77;;;;;;;20.48;64.71;100163.06;5091137;28;21072;-59
2023/08/09 02:32:50;;;;;;;3.20;1.90;;;;;;;20.49;64.39;100158.13;5092857;28;20215;-59
2023/08/09 02:35:16;;;;;;;7.57;1.70;;;;;;;20.48;64.53;100150.75;5071924;28;20165;-59
2023/08/09 02:37:41;;;;;;;3.80;2.00;;;;;;;20.46;64.15;100154.00;5090083;28;20159;-59
2023/08/09 02:40:09;;;;;;;5.00;1.90;;;;;;;20.47;64.79;100167.13;5084996;28;20575;-59
2023/08/09 02:42:35;;;;;;;3.70;2.03;;;;;;;20.47;64.60;100169.19;5101363;28;20511;-59
2023/08/09 02:45:00;;;;;;;3.67;2.17;;;;;;;20.47;64.80;100161.38;5095794;28;20443;-59
2023/08/09 02:47:26;;;;;;;4.53;2.00;;;;;;;20.47;65.00;100166.31;5099506;28;20186;-59
2023/08/09 02:49:51;;;;;;;5.33;2.10;;;;;;;20.47;64.47;100161.38;5089541;28;20300;-59
2023/08/09 02:52:17;;;;;;;3.13;1.83;;;;;;;20.47;64.26;100158.53;5091929;28;20639;-59
2023/08/09 02:54:43;;;;;;;3.00;1.63;;;;;;;20.46;64.25;100151.16;5077926;28;20264;-59
2023/08/09 02:57:08;;;;;;;5.50;2.03;;;;;;;20.46;64.82;100153.22;5091425;28;20427;-59
2023/08/09 02:59:34;;;;;;;4.60;2.10;;;;;;;20.46;64.55;100154.00;5108876;28;20699;-58
2023/08/09 03:02:00;;;;;;;3.97;1.50;;;;;;;20.47;64.75;100151.97;5109114;28;20238;-59
2023/08/09 03:04:25;;;;;;;6.53;2.17;;;;;;;20.46;64.33;100162.63;5107643;27;20181;-59
2023/08/09 03:06:51;;;;;;;3.57;2.10;;;;;;;20.45;64.74;100158.09;5103879;28;20193;-60
2023/08/09 03:09:16;;;;;;;5.00;2.03;;;;;;;20.45;64.67;100155.25;5110992;28;20154;-59
2023/08/09 03:11:42;;;;;;;5.67;2.20;;;;;;;20.45;64.52;100146.63;5107935;28;20173;-59
2023/08/09 03:14:07;;;;;;;2.80;1.90;;;;;;;20.45;64.12;100166.72;5090073;28;20617;-59
2023/08/09 03:16:33;;;;;;;5.63;1.70;;;;;;;20.44;64.71;100167.09;5109555;28;20233;-59
2023/08/09 03:18:58;;;;;;;3.93;2.20;;;;;;;20.44;64.30;100164.22;5095961;28;20194;-59
2023/08/09 03:21:23;;;;;;;5.13;2.27;;;;;;;20.43;64.43;100159.72;5089406;28;20174;-59
2023/08/09 03:23:49;;;;;;;4.20;2.17;;;;;;;20.43;64.66;100165.47;5092039;28;20188;-59
2023/08/09 03:26:15;;;;;;;4.13;2.10;;;;;;;20.43;64.37;100174.91;5093471;28;20539;-59
2023/08/09 03:28:42;;;;;;;3.70;1.90;;;;;;;20.42;64.33;100173.22;5108723;28;20548;-59
2023/08/09 03:31:08;;;;;;;3.93;1.70;;;;;;;20.41;64.54;100174.44;5109781;28;20430;-59
2023/08/09 03:33:34;;;;;;;4.90;2.10;;;;;;;20.41;64.42;100171.59;5090455;28;20437;-58
2023/08/09 03:35:59;;;;;;;5.20;2.30;;;;;;;20.41;64.58;100183.06;5100761;27;20991;-59
2023/08/09 03:38:25;;;;;;;4.90;2.20;;;;;;;20.41;64.55;100180.19;5111211;27;20198;-59
2023/08/09 03:40:50;;;;;;;4.23;1.97;;;;;;;20.40;64.24;100177.72;5090615;28;20189;-59
2023/08/09 03:43:16;;;;;;;4.10;1.80;;;;;;;20.39;64.77;100176.91;5088819;28;20209;-59
2023/08/09 03:45:41;;;;;;;3.90;2.00;;;;;;;20.40;64.64;100184.28;5091706;28;20303;-59
2023/08/09 03:48:06;;;;;;;4.10;2.07;;;;;;;20.40;64.93;100184.28;5091552;28;20214;-59
2023/08/09 03:50:32;;;;;;;3.63;2.13;;;;;;;20.40;65.01;100184.28;5087340;28;20231;-59
2023/08/09 03:52:58;;;;;;;6.30;1.90;;;;;;;20.39;64.64;100182.66;5109829;28;20292;-59
2023/08/09 03:55:23;;;;;;;3.77;2.00;;;;;;;20.40;64.82;100181.41;5108769;28;20181;-59
2023/08/09 03:57:48;;;;;;;2.97;1.87;;;;;;;20.40;64.75;100190.03;5103596;28;20860;-59
2023/08/09 04:00:17;;;;;;;4.20;2.30;;;;;;;20.39;65.06;100196.13;5107324;28;20202;-58
2023/08/09 04:02:45;;;;;;;3.33;1.80;;;;;;;20.39;64.92;100193.28;5118180;27;20180;-59
2023/08/09 04:05:10;;;;;;;5.30;1.70;;;;;;;20.39;64.92;100196.13;5088554;28;20801;-59
2023/08/09 04:07:36;;;;;;;3.73;1.80;;;;;;;20.37;64.86;100202.25;5103097;27;20422;-58
2023/08/09 04:10:01;;;;;;;5.63;1.90;;;;;;;20.37;64.83;100202.25;5108788;28;20181;-59
2023/08/09 04:12:27;;;;;;;3.37;2.20;;;;;;;20.37;65.02;100199.41;5104971;28;20182;-59
2023/08/09 04:14:52;;;;;;;5.03;2.00;;;;;;;20.37;64.83;100199.41;5115207;27;20180;-58
2023/08/09 04:17:18;;;;;;;3.20;1.93;;;;;;;20.37;65.08;100202.25;5110007;27;20314;-58
2023/08/09 04:19:43;;;;;;;3.83;2.00;;;;;;;20.37;64.74;100202.25;5108530;28;20205;-59
2023/08/09 04:22:09;;;;;;;5.50;1.90;;;;;;;20.36;65.08;100209.22;5108006;28;20193;-59
2023/08/09 04:24:34;;;;;;;5.20;2.30;;;;;;;20.36;64.86;100206.38;5107874;28;20206;-58
2023/08/09 04:27:00;;;;;;;4.00;2.23;;;;;;;20.36;64.84;100211.28;5091742;28;20181;-58
2023/08/09 04:29:27;;;;;;;5.30;1.93;;;;;;;20.35;65.10;100210.44;5087811;28;20683;-59
2023/08/09 04:31:52;;;;;;;5.20;1.93;;;;;;;20.36;64.93;100214.97;5099525;28;20435;-59
2023/08/09 04:34:17;;;;;;;3.90;1.97;;;;;;;20.37;64.79;100198.59;5107018;28;20481;-59
2023/08/09 04:36:43;;;;;;;4.00;1.80;;;;;;;20.36;65.14;100197.75;5102757;28;20173;-59
2023/08/09 04:39:09;;;;;;;3.87;2.30;;;;;;;20.35;64.87;100190.38;5107086;28;20193;-59
2023/08/09 04:41:35;;;;;;;3.10;1.73;;;;;;;20.37;64.58;100210.88;5108790;28;20221;-59
2023/08/09 04:44:00;;;;;;;3.93;2.13;;;;;;;20.37;65.07;100212.94;5108541;28;20173;-60
2023/08/09 04:46:26;;;;;;;4.50;1.70;;;;;;;20.37;64.73;100213.75;5078328;28;20946;-59
2023/08/09 04:48:51;;;;;;;4.33;1.93;;;;;;;20.36;64.81;100214.16;5088535;28;20745;-59
2023/08/09 04:51:18;;;;;;;3.50;2.10;;;;;;;20.36;64.64;100209.22;5072651;28;20185;-59
2023/08/09 04:53:44;;;;;;;6.47;2.20;;;;;;;20.36;64.60;100209.22;5088363;28;20863;-58
2023/08/09 04:56:09;;;;;;;3.33;1.90;;;;;;;20.35;64.69;100204.72;5105880;28;20407;-59
2023/08/09 04:58:35;;;;;;;3.80;2.17;;;;;;;20.35;64.72;100207.59;5108342;28;20857;-59
2023/08/09 05:01:00;;;;;;;3.70;2.10;;;;;;;20.35;65.02;100212.47;5107946;28;20177;-59
2023/08/09 05:03:26;;;;;;;4.57;1.97;;;;;;;20.34;64.87;100214.53;5109630;27;20170;-60
2023/08/09 05:05:51;;;;;;;6.50;2.43;;;;;;;20.34;64.62;100210.84;5108635;28;20537;-59
2023/08/09 05:08:17;;;;;;;4.80;2.03;;;;;;;20.33;64.77;100220.66;5112934;28;20158;-59
2023/08/09 05:10:42;;;;;;;3.87;1.93;;;;;;;20.33;64.75;100215.78;5094418;28;20173;-58
2023/08/09 05:13:08;;;;;;;5.20;2.10;;;;;;;20.32;64.71;100216.97;5097938;28;20848;-59
2023/08/09 05:15:33;;;;;;;5.03;1.90;;;;;;;20.33;64.59;100212.91;5100065;28;20605;-59
2023/08/09 05:17:59;;;;;;;10.17;2.30;;;;;;;20.32;64.62;100211.22;5112778;28;20510;-59
2023/08/09 05:20:24;;;;;;;3.03;1.63;;;;;;;20.32;64.67;100219.84;5092899;28;20162;-59
2023/08/09 05:22:50;;;;;;;4.50;2.70;;;;;;;20.31;64.71;100221.06;5106279;28;20196;-59
2023/08/09 05:25:16;;;;;;;5.77;2.27;;;;;;;20.32;64.71;100233.38;5091815;28;20716;-59
2023/08/09 05:27:46;;;;;;;3.17;2.13;;;;;;;20.31;64.93;100231.72;5091234;28;20183;-59
2023/08/09 05:30:12;;;;;;;3.93;1.90;;;;;;;20.30;64.88;100236.63;5092567;28;20911;-59
2023/08/09 05:32:38;;;;;;;4.90;2.27;;;;;;;20.30;64.93;100242.34;5090252;28;20428;-59
2023/08/09 05:35:04;;;;;;;5.57;2.23;;;;;;;20.29;64.75;100231.28;5093605;28;20174;-59
2023/08/09 05:37:30;;;;;;;4.00;1.90;;;;;;;20.29;64.94;100234.97;5096040;28;20253;-58
2023/08/09 05:39:55;;;;;;;5.03;2.03;;;;;;;20.30;64.48;100221.44;5114506;27;20509;-59
2023/08/09 05:42:21;;;;;;;4.33;2.10;;;;;;;20.29;64.53;100229.25;5103895;28;20907;-59
2023/08/09 05:44:47;;;;;;;5.03;2.37;;;;;;;20.31;64.62;100226.00;5106583;28;20629;-59
2023/08/09 05:47:12;;;;;;;5.37;1.87;;;;;;;20.30;64.21;100233.75;5086671;28;20174;-59
2023/08/09 05:49:38;;;;;;;5.20;2.40;;;;;;;20.30;64.54;100232.91;5073057;28;20187;-59
2023/08/09 05:52:03;;;;;;;7.70;2.40;;;;;;;20.29;64.43;100234.13;5087224;28;20195;-58
2023/08/09 05:54:29;;;;;;;5.33;2.17;;;;;;;20.28;64.60;100239.06;5081123;28;20205;-59
2023/08/09 05:56:55;;;;;;;3.90;1.87;;;;;;;20.29;64.64;100234.13;5101888;28;20189;-59
2023/08/09 05:59:20;;;;;;;4.33;2.10;;;;;;;20.29;64.50;100245.59;5110652;27;20197;-59
2023/08/09 06:01:45;;;;;;;3.13;1.83;;;;;;;20.28;64.61;100243.97;5120716;27;20173;-59
2023/08/09 06:04:11;;;;;;;3.17;1.73;;;;;;;20.28;64.71;100233.34;5111680;27;20192;-59
2023/08/09 06:06:37;;;;;;;4.60;1.80;;;;;;;20.29;64.64;100234.13;5112731;27;20170;-58
2023/08/09 06:09:05;;;;;;;4.37;2.20;;;;;;;20.29;64.55;100240.72;5108487;28;20420;-58
2023/08/09 06:11:32;;;;;;;5.13;2.30;;;;;;;20.29;65.04;100243.59;5086603;28;20776;-58
2023/08/09 06:13:58;;;;;;;4.37;2.07;;;;;;;20.29;64.86;100251.34;5073028;28;20408;-59
2023/08/09 06:16:24;;;;;;;3.13;1.90;;;;;;;20.29;64.95;100260.78;5099661;28;20467;-59
2023/08/09 06:18:49;;;;;;;5.93;1.80;;;;;;;20.28;64.99;100264.88;5110377;28;20443;-59
2023/08/09 06:21:15;;;;;;;5.73;2.13;;;;;;;20.29;65.14;100274.28;5100490;28;20670;-58
2023/08/09 06:23:40;;;;;;;4.60;2.40;;;;;;;20.29;65.16;100262.81;5071892;28;20292;-59
2023/08/09 06:26:06;;;;;;;4.13;1.83;;;;;;;20.29;65.63;100266.50;5094063;28;20243;-59
2023/08/09 06:28:31;;;;;;;4.93;2.27;;;;;;;20.29;65.62;100280.00;5110487;28;20169;-59
2023/08/09 06:30:56;;;;;;;3.70;2.10;;;;;;;20.29;65.87;100283.72;5103426;28;20193;-60
2023/08/09 06:33:22;;;;;;;2.70;1.70;;;;;;;20.29;65.69;100274.28;5091240;28;20308;-59
2023/08/09 06:35:48;;;;;;;4.13;1.90;;;;;;;20.30;65.93;100264.44;5093191;28;20185;-59
2023/08/09 06:38:14;;;;;;;4.03;2.00;;;;;;;20.31;65.76;100266.94;5072815;28;20237;-59
2023/08/09 06:40:39;;;;;;;3.47;1.83;;;;;;;20.32;65.71;100274.31;5107354;27;20431;-59
2023/08/09 06:43:05;;;;;;;5.67;2.70;;;;;;;20.30;65.99;100271.03;5093275;28;20166;-59
2023/08/09 06:45:30;;;;;;;4.90;2.10;;;;;;;20.31;66.18;100275.53;5107246;28;20932;-60
2023/08/09 06:47:56;;;;;;;9.80;2.37;;;;;;;20.30;66.36;100271.03;5091011;28;20165;-58
2023/08/09 06:50:23;;;;;;;10.27;2.33;;;;;;;20.32;66.43;100273.50;5106369;27;21043;-58
2023/08/09 06:52:49;;;;;;;9.10;2.33;;;;;;;20.31;66.51;100272.66;5110532;28;20446;-59
2023/08/09 06:55:14;;;;;;;5.90;2.10;;;;;;;20.31;66.31;100266.94;5108024;28;20785;-59
2023/08/09 06:57:39;;;;;;;7.67;2.93;;;;;;;20.32;66.70;100267.78;5089217;28;20650;-58
2023/08/09 07:00:06;;;;;;;6.10;2.73;;;;;;;20.34;66.86;100273.91;5090616;28;20209;-58
2023/08/09 07:02:35;;;;;;;4.03;2.40;;;;;;;20.34;66.35;100268.19;5109757;28;20173;-58
2023/08/09 07:05:02;;;;;;;7.93;2.40;;;;;;;20.34;66.47;100276.78;5110072;28;20953;-59
2023/08/09 07:07:27;;;;;;;3.80;2.37;;;;;;;20.34;66.81;100283.38;5103071;28;20474;-59
2023/08/09 07:09:53;;;;;;;3.37;2.17;;;;;;;20.35;66.49;100282.13;5106496;28;20926;-59
2023/08/09 07:12:20;;;;;;;7.10;2.43;;;;;;;20.35;66.69;100284.16;5100771;28;20178;-59
2023/08/09 07:14:46;;;;;;;3.17;1.73;;;;;;;20.35;66.92;100287.03;5109373;28;20170;-59
2023/08/09 07:17:11;;;;;;;6.03;2.50;;;;;;;20.35;67.15;100289.91;5093280;28;20480;-60
2023/08/09 07:19:37;;;;;;;7.10;2.70;;;;;;;20.34;67.06;100291.97;5070869;28;20471;-60
2023/08/09 07:22:03;;;;;;;4.80;2.20;;;;;;;20.34;67.06;100300.56;5073137;28;20248;-60
2023/08/09 07:24:28;;;;;;;3.63;2.47;;;;;;;20.34;67.33;100303.44;5072017;28;20190;-60
2023/08/09 07:26:54;;;;;;;4.10;2.27;;;;;;;20.33;67.45;100301.78;5093557;28;20182;-58
2023/08/09 07:29:19;;;;;;;6.13;2.37;;;;;;;20.31;67.41;100307.06;5092155;28;20690;-59
2023/08/09 07:31:45;;;;;;;6.40;2.00;;;;;;;20.32;67.30;100308.72;5110489;28;20196;-59
2023/08/09 07:34:10;;;;;;;8.93;2.40;;;;;;;20.32;67.29;100314.44;5110668;28;20177;-59
2023/08/09 07:36:36;;;;;;;5.77;2.30;;;;;;;20.33;67.49;100316.13;5102729;28;20186;-59
2023/08/09 07:39:03;;;;;;;8.60;2.97;;;;;;;20.33;67.61;100316.13;5091866;28;20553;-59
2023/08/09 07:41:28;;;;;;;4.00;1.90;;;;;;;20.34;67.37;100314.91;5109761;28;20178;-59
2023/08/09 07:43:53;;;;;;;8.70;2.60;;;;;;;20.35;66.99;100318.56;5091570;28;20431;-58
2023/08/09 07:46:19;;;;;;;4.20;2.13;;;;;;;20.36;67.51;100320.25;5098235;28;20183;-58
2023/08/09 07:48:45;;;;;;;5.00;2.53;;;;;;;20.37;67.06;100330.50;5094889;28;20201;-59
2023/08/09 07:51:11;;;;;;;5.00;2.50;;;;;;;20.36;67.59;100332.53;5103503;28;20190;-59
2023/08/09 07:53:38;;;;;;;5.23;2.40;;;;;;;20.37;67.43;100334.16;5105014;28;20697;-59
2023/08/09 07:56:03;;;;;;;5.97;2.10;;;;;;;20.38;67.33;100344.44;5110225;27;20767;-60
2023/08/09 07:58:29;;;;;;;5.67;2.53;;;;;;;20.38;67.46;100341.59;5097524;28;20451;-60
2023/08/09 08:00:54;;;;;;;4.50;2.30;;;;;;;20.38;67.41;100347.31;5104764;28;20586;-58
2023/08/09 08:03:20;;;;;;;5.00;1.80;;;;;;;20.38;67.79;100349.34;5102869;27;20157;-58
2023/08/09 08:05:45;;;;;;;4.30;2.30;;;;;;;20.38;67.93;100358.78;5110206;27;20277;-59
2023/08/09 08:08:11;;;;;;;5.17;2.20;;;;;;;20.39;67.48;100348.97;5095711;28;20212;-59
2023/08/09 08:10:37;;;;;;;4.83;1.80;;;;;;;20.38;67.56;100361.66;5107276;28;20166;-60
2023/08/09 08:13:02;;;;;;;3.20;1.90;;;;;;;20.39;67.70;100359.59;5101021;28;20732;-59
2023/08/09 08:15:28;;;;;;;4.03;2.20;;;;;;;20.39;67.70;100371.06;5101341;28;20415;-59
2023/08/09 08:17:54;;;;;;;7.73;2.80;;;;;;;20.38;68.08;100367.38;5107540;28;20174;-59
2023/08/09 08:20:20;;;;;;;3.90;1.80;;;;;;;20.38;68.12;100366.56;5102612;28;20210;-58
2023/08/09 08:22:48;;;;;;;4.30;2.47;;;;;;;20.36;68.06;100361.19;5105103;28;20471;-59
2023/08/09 08:25:14;;;;;;;5.13;2.00;;;;;;;20.38;67.79;100366.56;5080088;28;20186;-59
2023/08/09 08:27:40;;;;;;;6.23;2.80;;;;;;;20.39;67.78;100371.91;5088816;28;20470;-59
2023/08/09 08:30:08;;;;;;;3.70;2.30;;;;;;;20.43;67.87;100378.50;5089474;28;20179;-70
2023/08/09 08:32:34;;;;;;;4.10;2.07;;;;;;;20.59;68.64;100375.41;5090006;28;20206;-70
2023/08/09 08:35:02;;;;;;;8.03;3.40;;;;;;;20.92;69.71;100366.75;5076092;28;20455;-68
2023/08/09 08:37:28;;;;;;;8.30;4.13;;;;;;;21.06;70.23;100361.13;5091884;28;20569;-68
2023/08/09 08:39:53;;;;;;;7.23;3.10;;;;;;;20.94;68.70;100365.16;5109736;28;20474;-69
2023/08/09 08:42:19;;;;;;;7.07;2.90;;;;;;;20.87;68.83;100365.03;5071656;27;20451;-70
2023/08/09 08:44:46;;;;;;;4.47;2.27;;;;;;;20.82;68.69;100371.13;5077910;28;20259;-69
2023/08/09 08:47:12;;;;;;;3.63;2.20;;;;;;;20.80;68.68;100369.88;5106571;28;20462;-68
2023/08/09 08:49:44;;;;;;;6.83;2.40;;;;;;;20.79;67.78;100363.31;5106985;28;20205;-68
2023/08/09 08:52:10;;;;;;;5.40;2.23;;;;;;;20.83;67.88;100371.97;5093517;28;20191;-67
2023/08/09 08:54:36;;;;;;;6.33;2.20;;;;;;;20.84;68.26;100373.59;5056800;28;20487;-66
2023/08/09 08:57:01;;;;;;;3.23;1.87;;;;;;;20.85;67.90;100381.00;5089200;28;20165;-65
2023/08/09 08:59:27;;;;;;;8.70;1.90;;;;;;;20.84;67.77;100387.97;5109153;28;20201;-64
2023/08/09 09:01:52;;;;;;;5.77;2.07;;;;;;;20.85;68.07;100392.47;5084743;28;20186;-68
2023/08/09 09:04:18;;;;;;;4.23;1.80;;;;;;;20.84;67.89;100382.22;5106177;28;20185;-69
2023/08/09 09:06:43;;;;;;;3.90;1.83;;;;;;;20.84;67.39;100385.91;5070868;28;20185;-68
2023/08/09 09:09:16;;;;;;;6.07;2.00;;;;;;;20.84;67.64;100376.47;5088062;28;20585;-70
2023/08/09 09:11:44;;;;;;;4.60;2.63;;;;;;;20.87;67.39;100382.25;5100138;28;20185;-68
2023/08/09 09:14:11;;;;;;;4.57;2.77;;;;;;;21.06;68.27;100378.34;5105564;28;20430;-68
2023/08/09 09:16:36;;;;;;;7.10;2.77;;;;;;;21.08;69.35;100388.22;5087097;28;20934;-70
2023/08/09 09:19:02;;;;;;;4.73;2.20;;;;;;;21.03;68.80;100382.84;5096691;28;20462;-70
2023/08/09 09:21:30;;;;;;;6.20;2.00;;;;;;;20.95;67.65;100388.91;5086032;28;20178;-73
2023/08/09 09:23:56;;;;;;;4.60;2.43;;;;;;;21.01;67.72;100393.06;5088051;28;20189;-69
2023/08/09 09:26:21;;;;;;;5.23;2.10;;;;;;;21.07;67.74;100389.44;5099584;28;20436;-72
2023/08/09 09:28:48;;;;;;;2.63;1.50;;;;;;;21.05;67.51;100382.44;5066004;28;20189;-71
2023/08/09 09:31:17;;;;;;;4.60;1.97;;;;;;;21.01;67.27;100388.16;5099008;28;20537;-72
2023/08/09 09:33:51;;;;;;;3.70;1.60;;;;;;;20.95;66.94;100384.00;5080105;28;20478;-72
2023/08/09 09:36:17;;;;;;;5.23;2.30;;;;;;;20.96;67.31;100385.66;5103058;28;20442;-68
2023/08/09 09:38:43;;;;;;;5.10;2.10;;;;;;;21.01;67.18;100382.41;5106088;28;20479;-68
2023/08/09 09:41:09;;;;;;;5.67;1.90;;;;;;;20.99;66.99;100386.91;5078914;28;20218;-67
2023/08/09 09:43:38;;;;;;;3.13;1.80;;;;;;;21.05;67.20;100382.44;5095022;28;20182;-68
2023/08/09 09:46:03;;;;;;;7.73;2.23;;;;;;;21.05;67.30;100382.44;5105057;28;20439;-68
2023/08/09 09:48:29;;;;;;;4.10;2.00;;;;;;;21.07;67.62;100391.50;5105412;28;20714;-68
2023/08/09 09:50:55;;;;;;;8.13;2.17;;;;;;;21.09;68.02;100398.50;5109064;28;20185;-63
2023/08/09 09:53:21;;;;;;;6.20;1.83;;;;;;;21.07;67.89;100398.06;5082319;28;20539;-62
2023/08/09 09:55:46;;;;;;;4.23;1.90;;;;;;;21.02;67.37;100386.94;5090686;28;20966;-62
2023/08/09 09:58:12;;;;;;;4.20;1.97;;;;;;;20.98;67.21;100400.41;5095281;28;20231;-62
2023/08/09 10:00:41;;;;;;;4.03;1.73;;;;;;;20.95;66.98;100389.75;5079480;28;20204;-62
2023/08/09 10:03:09;;;;;;;4.90;1.60;;;;;;;20.93;67.41;100385.63;5110363;28;20181;-62
2023/08/09 10:05:39;;;;;;;5.90;1.90;;;;;;;20.92;67.13;100386.84;5112836;27;20427;-62
2023/08/09 10:08:08;;;;;;;3.40;1.40;;;;;;;20.92;66.86;100396.28;5106596;28;20435;-62
2023/08/09 10:10:34;;;;;;;5.90;1.87;;;;;;;20.90;67.37;100390.13;5078942;28;20518;-62
2023/08/09 10:13:01;;;;;;;3.93;2.03;;;;;;;20.89;67.20;100384.72;5096488;27;20439;-62
2023/08/09 10:15:32;;;;;;;5.50;1.93;;;;;;;20.87;67.44;100385.13;5120922;27;20423;-63
2023/08/09 10:18:03;;;;;;;4.60;1.80;;;;;;;20.86;67.34;100389.22;5098423;28;20428;-63
2023/08/09 10:20:29;;;;;;;4.33;1.63;;;;;;;20.87;67.74;100398.66;5071418;28;20877;-62
2023/08/09 10:22:58;;;;;;;5.37;1.90;;;;;;;20.87;67.62;100390.84;5088192;28;20435;-62
2023/08/09 10:25:45;;;;;;;5.33;2.00;;;;;;;20.87;67.50;100399.47;5099562;28;20255;-62
2023/08/09 10:28:11;;;;;;;4.50;2.07;;;;;;;20.88;67.93;100385.94;5101779;28;20447;-62
2023/08/09 10:30:47;;;;;;;5.30;2.10;;;;;;;20.89;68.08;100399.94;5101168;28;20506;-63
2023/08/09 10:33:18;;;;;;;2.70;1.53;;;;;;;20.89;68.57;100396.22;5103988;28;20644;-62
2023/08/09 10:35:52;;;;;;;4.83;2.10;;;;;;;20.98;68.22;100397.56;5113990;28;20654;-63
2023/08/09 10:38:41;;;;;;;4.97;1.93;;;;;;;21.06;67.90;100387.81;5116689;28;20450;-62
2023/08/09 10:41:08;;;;;;;5.53;1.90;;;;;;;21.05;67.88;100389.03;5091842;28;20432;-63
2023/08/09 10:43:33;;;;;;;7.70;2.50;;;;;;;21.11;67.49;100393.19;5109999;27;20431;-63
2023/08/09 10:46:24;;;;;;;4.73;1.70;;;;;;;21.04;67.56;100384.50;5105805;28;20424;-65
2023/08/09 10:48:59;;;;;;;7.87;2.10;;;;;;;21.01;68.09;100379.56;5100517;28;20205;-65
2023/08/09 10:51:24;;;;;;;5.33;2.07;;;;;;;21.10;69.39;100380.06;5106434;28;20464;-65
2023/08/09 10:54:03;;;;;;;4.00;2.17;;;;;;;21.19;69.97;100374.81;5105486;28;21172;-65
2023/08/09 10:56:41;;;;;;;8.40;3.10;;;;;;;21.22;69.80;100376.88;5097235;28;20296;-65
2023/08/09 10:59:08;;;;;;;4.80;2.80;;;;;;;21.31;68.87;100371.63;5106947;28;20532;-64
2023/08/09 11:01:34;;;;;;;8.77;3.00;;;;;;;21.32;69.72;100376.13;5086989;28;20420;-64
2023/08/09 11:04:01;;;;;;;6.27;2.53;;;;;;;21.40;67.88;100372.09;5074768;28;20520;-65
2023/08/09 11:06:34;;;;;;;9.00;3.27;;;;;;;21.40;68.50;100372.09;5107743;27;20489;-65
2023/08/09 11:09:09;;;;;;;5.47;3.70;;;;;;;21.58;68.64;100377.97;5109399;28;20889;-67
2023/08/09 11:11:35;;;;;;;5.30;3.07;;;;;;;21.43;68.17;100379.91;5106432;27;20457;-66
2023/08/09 11:14:04;;;;;;;5.10;2.60;;;;;;;21.36;67.61;100379.84;5117017;27;21148;-65
2023/08/09 11:16:30;;;;;;;6.30;2.30;;;;;;;21.33;68.39;100382.72;5084999;28;20284;-65
2023/08/09 11:19:15;;;;;;;6.60;2.70;;;;;;;21.33;67.96;100380.63;5095602;28;20443;-65
2023/08/09 11:21:52;;;;;;;6.60;2.80;;;;;;;21.31;68.91;100379.38;5096993;28;20223;-66